sensor_id;sensor_type;location;lat;lon;timestamp;P1;durP1;ratioP1;P2;durP2;ratioP2
31638;SDS011;18248;51.522;7.020;2023-07-02T00:01:53;6.43;;;3.40;;
31638;SDS011;18248;51.522;7.020;2023-07-02T00:04:52;8.43;;;3.70;;
31638;SDS011;18248;51.522;7.020;2023-07-02T00:07:51;13.32;;;3.42;;
31638;SDS011;18248;51.522;7.020;2023-07-02T00:10:49;5.80;;;2.95;;
31638;SDS011;18248;51.522;7.020;2023-07-02T00:13:48;5.57;;;2.63;;
31638;SDS011;18248;51.522;7.020;2023-07-02T00:16:47;9.75;;;3.40;;
31638;SDS011;18248;51.522;7.020;2023-07-02T00:19:45;7.30;;;2.80;;
31638;SDS011;18248;51.522;7.020;2023-07-02T00:22:44;6.15;;;3.33;;
31638;SDS011;18248;51.522;7.020;2023-07-02T00:25:44;6.40;;;3.25;;
31638;SDS011;18248;51.522;7.020;2023-07-02T00:28:44;7.40;;;3.47;;
31638;SDS011;18248;51.522;7.020;2023-07-02T00:31:42;12.07;;;3.72;;
31638;SDS011;18248;51.522;7.020;2023-07-02T00:34:41;10.15;;;3.80;;
31638;SDS011;18248;51.522;7.020;2023-07-02T00:37:39;11.68;;;3.08;;
31638;SDS011;18248;51.522;7.020;2023-07-02T00:40:38;7.32;;;3.88;;
31638;SDS011;18248;51.522;7.020;2023-07-02T00:43:37;12.00;;;4.28;;
31638;SDS011;18248;51.522;7.020;2023-07-02T00:46:41;8.48;;;3.97;;
31638;SDS011;18248;51.522;7.020;2023-07-02T00:49:40;12.05;;;4.30;;
31638;SDS011;18248;51.522;7.020;2023-07-02T00:52:38;9.05;;;4.10;;
31638;SDS011;18248;51.522;7.020;2023-07-02T00:55:37;10.57;;;3.67;;
31638;SDS011;18248;51.522;7.020;2023-07-02T00:58:37;12.82;;;4.40;;
31638;SDS011;18248;51.522;7.020;2023-07-02T01:01:38;11.93;;;4.30;;
31638;SDS011;18248;51.522;7.020;2023-07-02T01:04:37;8.55;;;4.50;;
31638;SDS011;18248;51.522;7.020;2023-07-02T01:07:36;9.82;;;4.68;;
31638;SDS011;18248;51.522;7.020;2023-07-02T01:10:35;13.68;;;4.65;;
31638;SDS011;18248;51.522;7.020;2023-07-02T01:13:35;10.88;;;4.88;;
31638;SDS011;18248;51.522;7.020;2023-07-02T01:16:33;11.25;;;4.57;;
31638;SDS011;18248;51.522;7.020;2023-07-02T01:19:39;15.65;;;4.70;;
31638;SDS011;18248;51.522;7.020;2023-07-02T01:22:49;13.27;;;4.90;;
31638;SDS011;18248;51.522;7.020;2023-07-02T01:25:51;10.98;;;4.65;;
31638;SDS011;18248;51.522;7.020;2023-07-02T01:28:50;14.52;;;4.90;;
31638;SDS011;18248;51.522;7.020;2023-07-02T01:31:50;13.20;;;4.93;;
31638;SDS011;18248;51.522;7.020;2023-07-02T01:34:48;13.23;;;4.57;;
31638;SDS011;18248;51.522;7.020;2023-07-02T01:37:47;8.77;;;3.83;;
31638;SDS011;18248;51.522;7.020;2023-07-02T01:40:46;9.02;;;4.65;;
31638;SDS011;18248;51.522;7.020;2023-07-02T01:43:44;12.45;;;5.00;;
31638;SDS011;18248;51.522;7.020;2023-07-02T01:46:45;12.23;;;5.20;;
31638;SDS011;18248;51.522;7.020;2023-07-02T01:49:47;13.07;;;5.13;;
31638;SDS011;18248;51.522;7.020;2023-07-02T01:52:45;13.68;;;4.80;;
31638;SDS011;18248;51.522;7.020;2023-07-02T01:55:44;16.38;;;5.85;;
31638;SDS011;18248;51.522;7.020;2023-07-02T01:58:42;11.93;;;5.40;;
31638;SDS011;18248;51.522;7.020;2023-07-02T02:01:41;13.13;;;5.70;;
31638;SDS011;18248;51.522;7.020;2023-07-02T02:04:39;15.65;;;6.05;;
31638;SDS011;18248;51.522;7.020;2023-07-02T02:07:38;18.17;;;5.97;;
31638;SDS011;18248;51.522;7.020;2023-07-02T02:10:36;14.85;;;6.00;;
31638;SDS011;18248;51.522;7.020;2023-07-02T02:13:35;19.02;;;6.70;;
31638;SDS011;18248;51.522;7.020;2023-07-02T02:16:33;13.55;;;6.20;;
31638;SDS011;18248;51.522;7.020;2023-07-02T02:19:32;17.20;;;6.53;;
31638;SDS011;18248;51.522;7.020;2023-07-02T02:22:31;21.75;;;7.20;;
31638;SDS011;18248;51.522;7.020;2023-07-02T02:25:29;20.52;;;6.22;;
31638;SDS011;18248;51.522;7.020;2023-07-02T02:28:28;15.68;;;7.05;;
31638;SDS011;18248;51.522;7.020;2023-07-02T02:31:26;15.27;;;6.97;;
31638;SDS011;18248;51.522;7.020;2023-07-02T02:34:27;13.70;;;7.05;;
31638;SDS011;18248;51.522;7.020;2023-07-02T02:37:26;15.93;;;6.95;;
31638;SDS011;18248;51.522;7.020;2023-07-02T02:40:25;21.60;;;7.75;;
31638;SDS011;18248;51.522;7.020;2023-07-02T02:43:23;22.77;;;7.68;;
31638;SDS011;18248;51.522;7.020;2023-07-02T02:46:22;18.75;;;7.28;;
31638;SDS011;18248;51.522;7.020;2023-07-02T02:49:21;20.23;;;8.35;;
31638;SDS011;18248;51.522;7.020;2023-07-02T02:52:19;18.50;;;7.85;;
31638;SDS011;18248;51.522;7.020;2023-07-02T02:55:18;17.17;;;7.97;;
31638;SDS011;18248;51.522;7.020;2023-07-02T02:58:16;16.60;;;8.18;;
31638;SDS011;18248;51.522;7.020;2023-07-02T03:01:15;23.08;;;9.23;;
31638;SDS011;18248;51.522;7.020;2023-07-02T03:04:13;28.73;;;10.00;;
31638;SDS011;18248;51.522;7.020;2023-07-02T03:07:12;22.38;;;9.57;;
31638;SDS011;18248;51.522;7.020;2023-07-02T03:10:10;26.58;;;9.32;;
31638;SDS011;18248;51.522;7.020;2023-07-02T03:13:09;23.73;;;9.68;;
31638;SDS011;18248;51.522;7.020;2023-07-02T03:16:09;25.98;;;10.82;;
31638;SDS011;18248;51.522;7.020;2023-07-02T03:19:07;22.65;;;10.05;;
31638;SDS011;18248;51.522;7.020;2023-07-02T03:22:06;21.83;;;10.85;;
31638;SDS011;18248;51.522;7.020;2023-07-02T03:25:04;27.20;;;11.20;;
31638;SDS011;18248;51.522;7.020;2023-07-02T03:28:03;24.98;;;11.40;;
31638;SDS011;18248;51.522;7.020;2023-07-02T03:31:02;30.20;;;12.35;;
31638;SDS011;18248;51.522;7.020;2023-07-02T03:34:06;30.75;;;11.98;;
31638;SDS011;18248;51.522;7.020;2023-07-02T03:37:07;25.33;;;11.65;;
31638;SDS011;18248;51.522;7.020;2023-07-02T03:40:06;28.60;;;11.93;;
31638;SDS011;18248;51.522;7.020;2023-07-02T03:43:05;22.98;;;10.93;;
31638;SDS011;18248;51.522;7.020;2023-07-02T03:46:03;28.33;;;12.13;;
31638;SDS011;18248;51.522;7.020;2023-07-02T03:49:02;25.92;;;12.02;;
31638;SDS011;18248;51.522;7.020;2023-07-02T03:52:01;28.05;;;12.98;;
31638;SDS011;18248;51.522;7.020;2023-07-02T03:54:59;32.20;;;12.63;;
31638;SDS011;18248;51.522;7.020;2023-07-02T03:57:59;29.55;;;12.88;;
31638;SDS011;18248;51.522;7.020;2023-07-02T04:00:58;33.55;;;14.63;;
31638;SDS011;18248;51.522;7.020;2023-07-02T04:03:56;30.35;;;13.30;;
31638;SDS011;18248;51.522;7.020;2023-07-02T04:06:54;25.45;;;12.07;;
31638;SDS011;18248;51.522;7.020;2023-07-02T04:09:53;31.50;;;13.88;;
31638;SDS011;18248;51.522;7.020;2023-07-02T04:12:52;34.85;;;13.68;;
31638;SDS011;18248;51.522;7.020;2023-07-02T04:15:50;25.08;;;13.02;;
31638;SDS011;18248;51.522;7.020;2023-07-02T04:18:49;26.63;;;12.48;;
31638;SDS011;18248;51.522;7.020;2023-07-02T04:21:47;31.70;;;13.48;;
31638;SDS011;18248;51.522;7.020;2023-07-02T04:24:46;29.85;;;14.00;;
31638;SDS011;18248;51.522;7.020;2023-07-02T04:27:46;25.48;;;13.75;;
31638;SDS011;18248;51.522;7.020;2023-07-02T04:30:45;32.45;;;14.63;;
31638;SDS011;18248;51.522;7.020;2023-07-02T04:33:47;30.73;;;14.35;;
31638;SDS011;18248;51.522;7.020;2023-07-02T04:36:46;30.98;;;14.13;;
31638;SDS011;18248;51.522;7.020;2023-07-02T04:39:44;38.22;;;15.90;;
31638;SDS011;18248;51.522;7.020;2023-07-02T04:42:43;35.92;;;15.43;;
31638;SDS011;18248;51.522;7.020;2023-07-02T04:45:44;30.35;;;14.65;;
31638;SDS011;18248;51.522;7.020;2023-07-02T04:48:46;28.23;;;14.80;;
31638;SDS011;18248;51.522;7.020;2023-07-02T04:51:44;29.60;;;14.13;;
31638;SDS011;18248;51.522;7.020;2023-07-02T04:54:43;31.65;;;14.27;;
31638;SDS011;18248;51.522;7.020;2023-07-02T04:57:41;34.15;;;16.17;;
31638;SDS011;18248;51.522;7.020;2023-07-02T05:00:42;31.42;;;15.63;;
31638;SDS011;18248;51.522;7.020;2023-07-02T05:03:40;37.75;;;17.10;;
31638;SDS011;18248;51.522;7.020;2023-07-02T05:06:39;32.70;;;15.68;;
31638;SDS011;18248;51.522;7.020;2023-07-02T05:09:38;38.45;;;16.00;;
31638;SDS011;18248;51.522;7.020;2023-07-02T05:12:37;31.45;;;15.82;;
31638;SDS011;18248;51.522;7.020;2023-07-02T05:15:35;39.70;;;15.98;;
31638;SDS011;18248;51.522;7.020;2023-07-02T05:18:34;25.67;;;14.75;;
31638;SDS011;18248;51.522;7.020;2023-07-02T05:21:34;40.35;;;16.25;;
31638;SDS011;18248;51.522;7.020;2023-07-02T05:24:32;36.83;;;16.95;;
31638;SDS011;18248;51.522;7.020;2023-07-02T05:27:32;38.33;;;17.05;;
31638;SDS011;18248;51.522;7.020;2023-07-02T05:30:31;41.28;;;17.83;;
31638;SDS011;18248;51.522;7.020;2023-07-02T05:33:29;37.67;;;16.73;;
31638;SDS011;18248;51.522;7.020;2023-07-02T05:36:31;41.55;;;17.20;;
31638;SDS011;18248;51.522;7.020;2023-07-02T05:39:29;33.65;;;16.30;;
31638;SDS011;18248;51.522;7.020;2023-07-02T05:42:28;38.28;;;15.88;;
31638;SDS011;18248;51.522;7.020;2023-07-02T05:45:27;31.73;;;14.95;;
31638;SDS011;18248;51.522;7.020;2023-07-02T05:48:27;33.47;;;15.18;;
31638;SDS011;18248;51.522;7.020;2023-07-02T05:51:25;33.55;;;15.60;;
31638;SDS011;18248;51.522;7.020;2023-07-02T05:54:24;38.10;;;16.67;;
31638;SDS011;18248;51.522;7.020;2023-07-02T05:57:23;39.83;;;17.27;;
31638;SDS011;18248;51.522;7.020;2023-07-02T06:00:21;38.22;;;16.95;;
31638;SDS011;18248;51.522;7.020;2023-07-02T06:03:20;36.90;;;15.27;;
31638;SDS011;18248;51.522;7.020;2023-07-02T06:06:18;31.83;;;15.15;;
31638;SDS011;18248;51.522;7.020;2023-07-02T06:09:17;30.40;;;14.38;;
31638;SDS011;18248;51.522;7.020;2023-07-02T06:12:15;36.40;;;16.17;;
31638;SDS011;18248;51.522;7.020;2023-07-02T06:15:14;37.33;;;15.93;;
31638;SDS011;18248;51.522;7.020;2023-07-02T06:18:13;33.47;;;15.50;;
31638;SDS011;18248;51.522;7.020;2023-07-02T06:21:11;31.95;;;15.13;;
31638;SDS011;18248;51.522;7.020;2023-07-02T06:24:10;34.97;;;16.25;;
31638;SDS011;18248;51.522;7.020;2023-07-02T06:27:08;28.42;;;15.63;;
31638;SDS011;18248;51.522;7.020;2023-07-02T06:30:07;31.02;;;14.85;;
31638;SDS011;18248;51.522;7.020;2023-07-02T06:33:06;28.75;;;14.98;;
31638;SDS011;18248;51.522;7.020;2023-07-02T06:36:04;27.08;;;14.48;;
31638;SDS011;18248;51.522;7.020;2023-07-02T06:39:03;31.15;;;15.20;;
31638;SDS011;18248;51.522;7.020;2023-07-02T06:42:01;33.50;;;15.13;;
31638;SDS011;18248;51.522;7.020;2023-07-02T06:45:00;35.58;;;14.73;;
31638;SDS011;18248;51.522;7.020;2023-07-02T06:47:59;32.22;;;14.18;;
31638;SDS011;18248;51.522;7.020;2023-07-02T06:50:57;28.35;;;12.48;;
31638;SDS011;18248;51.522;7.020;2023-07-02T06:53:56;28.40;;;13.93;;
31638;SDS011;18248;51.522;7.020;2023-07-02T06:56:54;34.83;;;14.48;;
31638;SDS011;18248;51.522;7.020;2023-07-02T06:59:56;27.52;;;12.80;;
31638;SDS011;18248;51.522;7.020;2023-07-02T07:02:57;26.88;;;13.40;;
31638;SDS011;18248;51.522;7.020;2023-07-02T07:05:55;31.80;;;13.43;;
31638;SDS011;18248;51.522;7.020;2023-07-02T07:08:54;31.30;;;12.98;;
31638;SDS011;18248;51.522;7.020;2023-07-02T07:11:52;30.83;;;12.77;;
31638;SDS011;18248;51.522;7.020;2023-07-02T07:14:51;26.10;;;11.98;;
31638;SDS011;18248;51.522;7.020;2023-07-02T07:17:49;28.88;;;11.40;;
31638;SDS011;18248;51.522;7.020;2023-07-02T07:20:48;26.25;;;12.07;;
31638;SDS011;18248;51.522;7.020;2023-07-02T07:23:46;26.13;;;11.07;;
31638;SDS011;18248;51.522;7.020;2023-07-02T07:26:45;27.15;;;11.02;;
31638;SDS011;18248;51.522;7.020;2023-07-02T07:29:43;26.23;;;11.85;;
31638;SDS011;18248;51.522;7.020;2023-07-02T07:32:42;30.67;;;11.43;;
31638;SDS011;18248;51.522;7.020;2023-07-02T07:35:42;21.65;;;10.23;;
31638;SDS011;18248;51.522;7.020;2023-07-02T07:38:42;20.92;;;9.85;;
31638;SDS011;18248;51.522;7.020;2023-07-02T07:41:41;22.13;;;10.00;;
31638;SDS011;18248;51.522;7.020;2023-07-02T07:44:47;26.37;;;10.87;;
31638;SDS011;18248;51.522;7.020;2023-07-02T07:47:45;24.38;;;11.00;;
31638;SDS011;18248;51.522;7.020;2023-07-02T07:50:44;23.58;;;10.32;;
31638;SDS011;18248;51.522;7.020;2023-07-02T07:53:42;21.83;;;9.98;;
31638;SDS011;18248;51.522;7.020;2023-07-02T07:56:42;26.98;;;10.85;;
31638;SDS011;18248;51.522;7.020;2023-07-02T07:59:41;26.95;;;11.10;;
31638;SDS011;18248;51.522;7.020;2023-07-02T08:02:39;22.92;;;9.80;;
31638;SDS011;18248;51.522;7.020;2023-07-02T08:05:38;23.55;;;9.75;;
31638;SDS011;18248;51.522;7.020;2023-07-02T08:08:38;25.58;;;10.10;;
31638;SDS011;18248;51.522;7.020;2023-07-02T08:11:36;24.27;;;9.52;;
31638;SDS011;18248;51.522;7.020;2023-07-02T08:14:35;24.10;;;10.75;;
31638;SDS011;18248;51.522;7.020;2023-07-02T08:17:33;31.17;;;10.43;;
31638;SDS011;18248;51.522;7.020;2023-07-02T08:20:32;24.60;;;10.18;;
31638;SDS011;18248;51.522;7.020;2023-07-02T08:23:31;27.60;;;10.68;;
31638;SDS011;18248;51.522;7.020;2023-07-02T08:26:30;22.17;;;9.88;;
31638;SDS011;18248;51.522;7.020;2023-07-02T08:29:29;25.35;;;9.60;;
31638;SDS011;18248;51.522;7.020;2023-07-02T08:32:28;19.73;;;8.90;;
31638;SDS011;18248;51.522;7.020;2023-07-02T08:35:30;19.65;;;8.80;;
31638;SDS011;18248;51.522;7.020;2023-07-02T08:38:29;20.60;;;8.70;;
31638;SDS011;18248;51.522;7.020;2023-07-02T08:41:28;17.77;;;7.95;;
31638;SDS011;18248;51.522;7.020;2023-07-02T08:44:27;19.77;;;8.18;;
31638;SDS011;18248;51.522;7.020;2023-07-02T08:47:26;15.13;;;7.90;;
31638;SDS011;18248;51.522;7.020;2023-07-02T08:50:24;15.75;;;6.97;;
31638;SDS011;18248;51.522;7.020;2023-07-02T08:53:23;15.32;;;7.68;;
31638;SDS011;18248;51.522;7.020;2023-07-02T08:56:27;17.35;;;7.45;;
31638;SDS011;18248;51.522;7.020;2023-07-02T08:59:26;21.92;;;9.27;;
31638;SDS011;18248;51.522;7.020;2023-07-02T09:02:33;18.33;;;7.28;;
31638;SDS011;18248;51.522;7.020;2023-07-02T09:05:32;19.38;;;7.10;;
31638;SDS011;18248;51.522;7.020;2023-07-02T09:08:31;15.63;;;7.40;;
31638;SDS011;18248;51.522;7.020;2023-07-02T09:11:31;16.00;;;6.57;;
31638;SDS011;18248;51.522;7.020;2023-07-02T09:14:30;17.95;;;7.38;;
31638;SDS011;18248;51.522;7.020;2023-07-02T09:17:30;18.00;;;7.40;;
31638;SDS011;18248;51.522;7.020;2023-07-02T09:20:32;17.58;;;7.65;;
31638;SDS011;18248;51.522;7.020;2023-07-02T09:23:33;17.88;;;7.88;;
31638;SDS011;18248;51.522;7.020;2023-07-02T09:26:33;22.33;;;7.82;;
31638;SDS011;18248;51.522;7.020;2023-07-02T09:29:32;17.70;;;7.65;;
31638;SDS011;18248;51.522;7.020;2023-07-02T09:32:31;21.45;;;8.23;;
31638;SDS011;18248;51.522;7.020;2023-07-02T09:35:30;22.65;;;7.82;;
31638;SDS011;18248;51.522;7.020;2023-07-02T09:38:29;20.20;;;7.78;;
31638;SDS011;18248;51.522;7.020;2023-07-02T09:41:27;19.15;;;8.60;;
31638;SDS011;18248;51.522;7.020;2023-07-02T09:44:30;20.63;;;7.80;;
31638;SDS011;18248;51.522;7.020;2023-07-02T09:47:29;21.35;;;8.27;;
31638;SDS011;18248;51.522;7.020;2023-07-02T09:50:33;20.40;;;8.65;;
31638;SDS011;18248;51.522;7.020;2023-07-02T09:53:32;19.25;;;8.30;;
31638;SDS011;18248;51.522;7.020;2023-07-02T09:56:31;23.35;;;8.85;;
31638;SDS011;18248;51.522;7.020;2023-07-02T09:59:30;17.08;;;8.05;;
31638;SDS011;18248;51.522;7.020;2023-07-02T10:02:28;22.10;;;7.43;;
31638;SDS011;18248;51.522;7.020;2023-07-02T10:05:28;16.05;;;7.10;;
31638;SDS011;18248;51.522;7.020;2023-07-02T10:08:27;18.92;;;8.05;;
31638;SDS011;18248;51.522;7.020;2023-07-02T10:11:34;21.20;;;8.13;;
31638;SDS011;18248;51.522;7.020;2023-07-02T10:14:42;22.52;;;8.63;;
31638;SDS011;18248;51.522;7.020;2023-07-02T10:17:41;16.20;;;7.43;;
31638;SDS011;18248;51.522;7.020;2023-07-02T10:20:40;19.40;;;7.78;;
31638;SDS011;18248;51.522;7.020;2023-07-02T10:23:39;17.05;;;7.82;;
31638;SDS011;18248;51.522;7.020;2023-07-02T10:26:50;21.52;;;8.63;;
31638;SDS011;18248;51.522;7.020;2023-07-02T10:29:50;17.92;;;7.82;;
31638;SDS011;18248;51.522;7.020;2023-07-02T10:32:49;16.13;;;7.18;;
31638;SDS011;18248;51.522;7.020;2023-07-02T10:35:48;17.40;;;7.80;;
31638;SDS011;18248;51.522;7.020;2023-07-02T10:38:47;18.83;;;6.95;;
31638;SDS011;18248;51.522;7.020;2023-07-02T10:41:46;19.10;;;7.72;;
31638;SDS011;18248;51.522;7.020;2023-07-02T10:44:49;20.80;;;8.25;;
31638;SDS011;18248;51.522;7.020;2023-07-02T10:47:49;18.63;;;7.82;;
31638;SDS011;18248;51.522;7.020;2023-07-02T10:50:48;20.10;;;7.95;;
31638;SDS011;18248;51.522;7.020;2023-07-02T10:53:55;18.70;;;7.10;;
31638;SDS011;18248;51.522;7.020;2023-07-02T10:56:57;20.00;;;7.47;;
31638;SDS011;18248;51.522;7.020;2023-07-02T11:00:03;18.70;;;7.13;;
31638;SDS011;18248;51.522;7.020;2023-07-02T11:03:15;21.02;;;7.32;;
31638;SDS011;18248;51.522;7.020;2023-07-02T11:06:15;19.70;;;7.18;;
31638;SDS011;18248;51.522;7.020;2023-07-02T11:09:17;17.55;;;7.78;;
31638;SDS011;18248;51.522;7.020;2023-07-02T11:12:18;18.05;;;7.50;;
31638;SDS011;18248;51.522;7.020;2023-07-02T11:15:25;19.55;;;7.25;;
31638;SDS011;18248;51.522;7.020;2023-07-02T11:18:34;18.80;;;7.65;;
31638;SDS011;18248;51.522;7.020;2023-07-02T11:21:32;22.45;;;7.75;;
31638;SDS011;18248;51.522;7.020;2023-07-02T11:24:31;19.88;;;7.30;;
31638;SDS011;18248;51.522;7.020;2023-07-02T11:27:32;15.38;;;6.43;;
31638;SDS011;18248;51.522;7.020;2023-07-02T11:30:30;13.75;;;6.63;;
31638;SDS011;18248;51.522;7.020;2023-07-02T11:33:33;17.98;;;7.00;;
31638;SDS011;18248;51.522;7.020;2023-07-02T11:36:35;16.67;;;6.72;;
31638;SDS011;18248;51.522;7.020;2023-07-02T11:39:33;16.90;;;7.40;;
31638;SDS011;18248;51.522;7.020;2023-07-02T11:42:32;17.48;;;7.28;;
31638;SDS011;18248;51.522;7.020;2023-07-02T11:45:30;19.75;;;7.00;;
31638;SDS011;18248;51.522;7.020;2023-07-02T11:48:29;13.68;;;6.32;;
31638;SDS011;18248;51.522;7.020;2023-07-02T11:51:28;17.77;;;7.10;;
31638;SDS011;18248;51.522;7.020;2023-07-02T11:54:26;16.30;;;6.10;;
31638;SDS011;18248;51.522;7.020;2023-07-02T11:57:25;14.70;;;6.68;;
31638;SDS011;18248;51.522;7.020;2023-07-02T12:00:23;14.98;;;6.68;;
31638;SDS011;18248;51.522;7.020;2023-07-02T12:03:22;18.40;;;6.95;;
31638;SDS011;18248;51.522;7.020;2023-07-02T12:06:20;18.00;;;6.60;;
31638;SDS011;18248;51.522;7.020;2023-07-02T12:09:19;14.95;;;6.32;;
31638;SDS011;18248;51.522;7.020;2023-07-02T12:12:17;16.90;;;6.25;;
31638;SDS011;18248;51.522;7.020;2023-07-02T12:15:16;13.38;;;5.78;;
31638;SDS011;18248;51.522;7.020;2023-07-02T12:18:15;13.10;;;6.25;;
31638;SDS011;18248;51.522;7.020;2023-07-02T12:21:13;17.95;;;6.72;;
31638;SDS011;18248;51.522;7.020;2023-07-02T12:24:12;14.23;;;6.47;;
31638;SDS011;18248;51.522;7.020;2023-07-02T12:27:10;14.25;;;6.13;;
31638;SDS011;18248;51.522;7.020;2023-07-02T12:30:09;15.15;;;6.50;;
31638;SDS011;18248;51.522;7.020;2023-07-02T12:33:09;19.00;;;7.28;;
31638;SDS011;18248;51.522;7.020;2023-07-02T12:36:08;18.33;;;6.88;;
31638;SDS011;18248;51.522;7.020;2023-07-02T12:39:07;22.50;;;7.90;;
31638;SDS011;18248;51.522;7.020;2023-07-02T12:42:05;16.58;;;6.75;;
31638;SDS011;18248;51.522;7.020;2023-07-02T12:45:05;18.20;;;7.30;;
31638;SDS011;18248;51.522;7.020;2023-07-02T12:48:04;16.75;;;7.28;;
31638;SDS011;18248;51.522;7.020;2023-07-02T12:51:03;13.65;;;6.68;;
31638;SDS011;18248;51.522;7.020;2023-07-02T12:54:01;15.52;;;6.05;;
31638;SDS011;18248;51.522;7.020;2023-07-02T12:57:00;15.07;;;6.47;;
31638;SDS011;18248;51.522;7.020;2023-07-02T12:59:58;17.55;;;6.78;;
31638;SDS011;18248;51.522;7.020;2023-07-02T13:02:57;13.65;;;6.50;;
31638;SDS011;18248;51.522;7.020;2023-07-02T13:05:55;17.00;;;6.85;;
31638;SDS011;18248;51.522;7.020;2023-07-02T13:08:54;15.88;;;6.55;;
31638;SDS011;18248;51.522;7.020;2023-07-02T13:11:54;17.77;;;6.47;;
31638;SDS011;18248;51.522;7.020;2023-07-02T13:14:53;20.90;;;6.50;;
31638;SDS011;18248;51.522;7.020;2023-07-02T13:17:51;15.57;;;6.40;;
31638;SDS011;18248;51.522;7.020;2023-07-02T13:20:50;13.73;;;6.65;;
31638;SDS011;18248;51.522;7.020;2023-07-02T13:23:49;20.00;;;7.47;;
31638;SDS011;18248;51.522;7.020;2023-07-02T13:26:49;17.23;;;7.15;;
31638;SDS011;18248;51.522;7.020;2023-07-02T13:29:48;17.48;;;7.38;;
31638;SDS011;18248;51.522;7.020;2023-07-02T13:32:47;19.50;;;8.15;;
31638;SDS011;18248;51.522;7.020;2023-07-02T13:35:45;21.45;;;8.45;;
31638;SDS011;18248;51.522;7.020;2023-07-02T13:38:44;19.48;;;8.55;;
31638;SDS011;18248;51.522;7.020;2023-07-02T13:41:42;23.25;;;8.70;;
31638;SDS011;18248;51.522;7.020;2023-07-02T13:44:43;19.38;;;7.55;;
31638;SDS011;18248;51.522;7.020;2023-07-02T13:47:42;21.15;;;9.07;;
31638;SDS011;18248;51.522;7.020;2023-07-02T13:50:40;20.13;;;8.55;;
31638;SDS011;18248;51.522;7.020;2023-07-02T13:53:39;20.73;;;8.70;;
31638;SDS011;18248;51.522;7.020;2023-07-02T13:56:37;18.17;;;8.13;;
31638;SDS011;18248;51.522;7.020;2023-07-02T13:59:36;24.15;;;10.10;;
31638;SDS011;18248;51.522;7.020;2023-07-02T14:02:35;16.95;;;8.60;;
31638;SDS011;18248;51.522;7.020;2023-07-02T14:05:33;20.15;;;7.78;;
31638;SDS011;18248;51.522;7.020;2023-07-02T14:08:32;28.40;;;9.80;;
31638;SDS011;18248;51.522;7.020;2023-07-02T14:11:30;21.45;;;8.95;;
31638;SDS011;18248;51.522;7.020;2023-07-02T14:14:30;19.98;;;8.60;;
31638;SDS011;18248;51.522;7.020;2023-07-02T14:17:28;24.63;;;9.65;;
31638;SDS011;18248;51.522;7.020;2023-07-02T14:20:28;25.27;;;9.65;;
31638;SDS011;18248;51.522;7.020;2023-07-02T14:23:27;21.42;;;9.57;;
31638;SDS011;18248;51.522;7.020;2023-07-02T14:26:25;30.98;;;9.55;;
31638;SDS011;18248;51.522;7.020;2023-07-02T14:29:24;18.90;;;8.38;;
31638;SDS011;18248;51.522;7.020;2023-07-02T14:32:22;26.45;;;8.98;;
31638;SDS011;18248;51.522;7.020;2023-07-02T14:35:21;21.80;;;9.40;;
31638;SDS011;18248;51.522;7.020;2023-07-02T14:38:23;22.42;;;9.50;;
31638;SDS011;18248;51.522;7.020;2023-07-02T14:41:22;28.45;;;9.98;;
31638;SDS011;18248;51.522;7.020;2023-07-02T14:44:20;24.67;;;8.90;;
31638;SDS011;18248;51.522;7.020;2023-07-02T14:47:19;21.80;;;8.80;;
31638;SDS011;18248;51.522;7.020;2023-07-02T14:50:17;22.48;;;9.35;;
31638;SDS011;18248;51.522;7.020;2023-07-02T14:53:16;23.73;;;8.50;;
31638;SDS011;18248;51.522;7.020;2023-07-02T14:56:16;19.27;;;8.23;;
31638;SDS011;18248;51.522;7.020;2023-07-02T14:59:16;19.50;;;9.07;;
31638;SDS011;18248;51.522;7.020;2023-07-02T15:02:16;21.65;;;8.85;;
31638;SDS011;18248;51.522;7.020;2023-07-02T15:05:14;23.35;;;9.43;;
31638;SDS011;18248;51.522;7.020;2023-07-02T15:08:13;22.02;;;9.02;;
31638;SDS011;18248;51.522;7.020;2023-07-02T15:11:14;22.00;;;8.95;;
31638;SDS011;18248;51.522;7.020;2023-07-02T15:14:15;26.50;;;8.63;;
31638;SDS011;18248;51.522;7.020;2023-07-02T15:17:13;23.85;;;10.05;;
31638;SDS011;18248;51.522;7.020;2023-07-02T15:20:12;22.45;;;8.80;;
31638;SDS011;18248;51.522;7.020;2023-07-02T15:23:10;26.42;;;10.52;;
31638;SDS011;18248;51.522;7.020;2023-07-02T15:26:11;27.15;;;9.85;;
31638;SDS011;18248;51.522;7.020;2023-07-02T15:29:09;18.70;;;8.57;;
31638;SDS011;18248;51.522;7.020;2023-07-02T15:32:08;21.80;;;8.90;;
31638;SDS011;18248;51.522;7.020;2023-07-02T15:35:07;28.67;;;11.65;;
31638;SDS011;18248;51.522;7.020;2023-07-02T15:38:05;33.95;;;12.30;;
31638;SDS011;18248;51.522;7.020;2023-07-02T15:41:08;36.30;;;15.80;;
31638;SDS011;18248;51.522;7.020;2023-07-02T15:44:11;22.02;;;8.80;;
31638;SDS011;18248;51.522;7.020;2023-07-02T15:47:10;25.27;;;10.55;;
31638;SDS011;18248;51.522;7.020;2023-07-02T15:50:08;20.27;;;8.40;;
31638;SDS011;18248;51.522;7.020;2023-07-02T15:53:07;20.90;;;8.25;;
31638;SDS011;18248;51.522;7.020;2023-07-02T15:56:06;16.35;;;7.90;;
31638;SDS011;18248;51.522;7.020;2023-07-02T15:59:04;21.10;;;7.90;;
31638;SDS011;18248;51.522;7.020;2023-07-02T16:02:05;19.25;;;7.38;;
31638;SDS011;18248;51.522;7.020;2023-07-02T16:05:07;15.98;;;6.57;;
31638;SDS011;18248;51.522;7.020;2023-07-02T16:08:06;20.02;;;7.10;;
31638;SDS011;18248;51.522;7.020;2023-07-02T16:11:05;16.65;;;6.93;;
31638;SDS011;18248;51.522;7.020;2023-07-02T16:14:08;16.38;;;7.35;;
31638;SDS011;18248;51.522;7.020;2023-07-02T16:17:08;24.33;;;7.25;;
31638;SDS011;18248;51.522;7.020;2023-07-02T16:20:07;17.42;;;6.35;;
31638;SDS011;18248;51.522;7.020;2023-07-02T16:23:06;15.82;;;7.22;;
31638;SDS011;18248;51.522;7.020;2023-07-02T16:26:07;24.98;;;7.40;;
31638;SDS011;18248;51.522;7.020;2023-07-02T16:29:07;17.20;;;6.47;;
31638;SDS011;18248;51.522;7.020;2023-07-02T16:32:10;23.70;;;7.05;;
31638;SDS011;18248;51.522;7.020;2023-07-02T16:35:11;17.55;;;7.28;;
31638;SDS011;18248;51.522;7.020;2023-07-02T16:38:09;16.10;;;7.53;;
31638;SDS011;18248;51.522;7.020;2023-07-02T16:41:08;16.27;;;6.72;;
31638;SDS011;18248;51.522;7.020;2023-07-02T16:44:09;14.57;;;6.50;;
31638;SDS011;18248;51.522;7.020;2023-07-02T16:47:07;17.02;;;6.85;;
31638;SDS011;18248;51.522;7.020;2023-07-02T16:50:07;19.58;;;7.10;;
31638;SDS011;18248;51.522;7.020;2023-07-02T16:53:06;19.10;;;7.18;;
31638;SDS011;18248;51.522;7.020;2023-07-02T16:56:06;21.70;;;7.70;;
31638;SDS011;18248;51.522;7.020;2023-07-02T16:59:06;23.73;;;7.55;;
31638;SDS011;18248;51.522;7.020;2023-07-02T17:02:07;20.17;;;7.18;;
31638;SDS011;18248;51.522;7.020;2023-07-02T17:05:06;15.43;;;7.10;;
31638;SDS011;18248;51.522;7.020;2023-07-02T17:08:05;11.43;;;6.07;;
31638;SDS011;18248;51.522;7.020;2023-07-02T17:11:04;16.58;;;6.55;;
31638;SDS011;18248;51.522;7.020;2023-07-02T17:14:04;13.75;;;6.20;;
31638;SDS011;18248;51.522;7.020;2023-07-02T17:17:04;16.27;;;7.07;;
31638;SDS011;18248;51.522;7.020;2023-07-02T17:20:05;18.35;;;6.30;;
31638;SDS011;18248;51.522;7.020;2023-07-02T17:23:04;17.70;;;6.57;;
31638;SDS011;18248;51.522;7.020;2023-07-02T17:26:02;19.25;;;6.55;;
31638;SDS011;18248;51.522;7.020;2023-07-02T17:29:04;20.88;;;7.47;;
31638;SDS011;18248;51.522;7.020;2023-07-02T17:32:03;19.20;;;7.40;;
31638;SDS011;18248;51.522;7.020;2023-07-02T17:35:04;19.67;;;7.45;;
31638;SDS011;18248;51.522;7.020;2023-07-02T17:38:03;17.95;;;7.05;;
31638;SDS011;18248;51.522;7.020;2023-07-02T17:41:02;15.60;;;6.50;;